EDT,Max TemperatureF,Mean TemperatureF,Min TemperatureF,Max Dew PointF,MeanDew PointF,Min DewpointF,Max Humidity, Mean Humidity, Min Humidity, Max Sea Level PressureIn, Mean Sea Level PressureIn, Min Sea Level PressureIn, Max VisibilityMiles, Mean VisibilityMiles, Min VisibilityMiles, Max Wind SpeedMPH, Mean Wind SpeedMPH, Max Gust SpeedMPH,PrecipitationIn, CloudCover, Events, WindDirDegrees
2011-10-1,42,38,35,43,39,36,100,100,93,30.05,29.95,29.88,10,8,1,15,8,25,0.00,2,,307
2011-10-2,51,44,37,39,35,32,100,80,50,30.08,30.04,30.01,10,10,3,13,9,,0.00,3,,297
2011-10-3,53,45,37,46,37,34,100,76,54,30.19,30.11,30.03,10,10,3,9,6,,0.00,3,,281
2011-10-4,64,54,44,52,48,45,100,83,59,30.31,30.26,30.20,10,10,10,8,3,,0.00,7,,307
2011-10-5,73,60,46,54,45,34,100,71,25,30.34,30.31,30.27,10,10,2,6,1,,0.00,0,,350
2011-10-6,75,63,51,52,48,45,94,62,38,30.36,30.32,30.30,10,10,9,7,3,,0.00,0,,55
2011-10-7,75,63,51,57,52,48,100,67,38,30.45,30.41,30.36,10,10,8,7,1,,0.00,0,,9
2011-10-8,73,62,51,50,41,30,82,50,20,30.50,30.45,30.41,10,10,10,10,5,,0.00,0,,120
2011-10-9,71,61,51,46,43,37,82,58,33,30.45,30.41,30.34,10,10,10,10,6,,0.00,0,,124
2011-10-10,69,60,51,48,45,41,82,58,35,30.34,30.26,30.17,10,10,10,8,5,,0.00,0,,69
2011-10-11,64,58,51,52,48,46,100,69,52,30.15,30.08,30.00,10,10,6,10,6,21,0.00,4,,92
2011-10-12,64,58,51,57,55,52,100,93,77,29.96,29.89,29.83,10,9,1,6,2,,0.00,5,,318
2011-10-13,64,60,55,63,58,55,100,99,94,29.80,29.67,29.58,10,9,2,10,2,,0.00,2,,252
2011-10-14,60,54,48,54,45,34,100,74,42,29.81,29.71,29.61,10,9,3,18,9,33,0.00,3,,274
2011-10-15,62,54,46,36,32,27,66,45,27,30.03,29.95,29.85,10,10,10,17,9,28,0.00,0,,267
2011-10-16,69,56,44,41,34,30,66,44,28,30.15,30.08,29.98,10,10,10,14,7,25,0.00,0,,237
2011-10-17,73,66,59,52,48,43,63,54,46,29.99,29.95,29.90,10,10,10,14,8,25,0.00,2,,244
2011-10-18,78,69,60,54,51,45,77,59,32,29.89,29.84,29.72,10,10,8,8,3,,0.00,0,,218
2011-10-19,59,49,39,57,50,39,100,94,77,29.61,29.45,29.30,10,9,2,15,6,26,0.00,5,,166
2011-10-20,39,38,37,39,38,36,100,98,93,29.79,29.60,29.46,10,8,4,17,11,36,0.00,0,,234
2011-10-21,53,45,37,39,35,32,93,71,44,30.10,30.05,29.96,10,10,10,10,6,,0.00,4,,276
2011-10-22,57,45,33,37,34,28,100,69,33,30.16,30.12,30.09,10,10,10,6,1,,0.00,0,,278
2011-10-23,64,50,35,39,32,25,93,57,24,30.14,30.10,30.07,10,10,5,9,1,,0.00,0,,282
2011-10-24,66,56,46,46,37,30,77,52,37,30.15,30.11,30.06,10,10,8,10,2,,0.00,1,,238
2011-10-25,69,56,42,50,42,19,100,72,18,30.30,30.22,30.14,10,8,0,7,1,,0.00,2,,238
2011-10-26,69,61,53,45,42,36,67,52,38,30.10,30.04,29.95,10,10,10,14,7,24,0.00,1,,236
2011-10-27,59,50,41,54,47,41,100,80,55,30.02,29.89,29.82,10,9,2,14,9,25,0.00,5,,259
2011-10-28,41,38,35,41,37,34,100,99,93,30.07,30.01,29.96,10,6,0,9,6,,0.00,3,,73
2011-10-29,42,37,32,36,32,28,100,88,61,30.08,30.01,29.94,10,7,0,14,4,,0.00,3,,311
2011-10-30,51,40,30,36,28,18,100,65,26,30.27,30.19,30.11,10,10,10,6,2,,0.00,0,,240
2011-10-31,46,42,37,39,29,27,100,63,46,30.21,30.19,30.16,10,10,8,10,4,,0.00,0,,184